Time;durP1;ratioP1;P1;durP2;ratioP2;P2;SDS_P1;SDS_P2;PMS_P1;PMS_P2;Temp;Humidity;BMP_temperature;BMP_pressure;BME280_temperature;BME280_humidity;BME280_pressure;Samples;Min_cycle;Max_cycle;Signal;HPM_P1;HPM_P2
2023/01/17 00:00:13;;;;;;;4.93;1.80;;;5.10;99.90;;;;;;10358233;28;20209;-71
2023/01/17 00:10:33;;;;;;;2.43;1.40;;;5.10;99.90;;;;;;10349802;28;20220;-70
2023/01/17 00:15:33;;;;;;;2.73;1.60;;;5.10;99.90;;;;;;10358549;28;20210;-70
2023/01/17 00:26:02;;;;;;;4.40;1.70;;;5.10;99.90;;;;;;10364148;28;20263;-68
2023/01/17 01:34:09;;;;;;;3.00;1.50;;;4.50;99.90;;;;;;10357130;28;20604;-71
2023/01/17 01:39:09;;;;;;;4.27;1.60;;;4.50;99.90;;;;;;10346564;28;20229;-70
2023/01/17 01:44:42;;;;;;;3.70;1.83;;;4.40;99.90;;;;;;10350051;28;20234;-70
2023/01/17 01:49:43;;;;;;;4.03;1.90;;;4.30;99.90;;;;;;10340967;28;20276;-72
2023/01/17 01:54:51;;;;;;;5.50;2.03;;;4.30;99.90;;;;;;10353929;28;20268;-71
2023/01/17 02:00:03;;;;;;;4.77;2.13;;;4.30;99.90;;;;;;10339324;28;20704;-67
2023/01/17 02:05:04;;;;;;;3.47;2.17;;;4.30;99.90;;;;;;10340215;28;20904;-68
2023/01/17 02:10:05;;;;;;;3.13;1.90;;;4.40;99.90;;;;;;10349198;28;20285;-67
2023/01/17 02:15:06;;;;;;;6.13;2.00;;;4.40;99.90;;;;;;10350171;28;20217;-68
2023/01/17 02:20:49;;;;;;;4.43;1.90;;;4.40;99.90;;;;;;10356784;28;20262;-67
2023/01/17 02:25:56;;;;;;;4.47;2.00;;;4.40;99.90;;;;;;10343179;28;20634;-70
2023/01/17 02:31:15;;;;;;;7.73;1.97;;;4.40;99.90;;;;;;10352200;28;20275;-69
2023/01/17 02:36:27;;;;;;;5.80;2.37;;;4.50;99.90;;;;;;10354556;28;20225;-68
2023/01/17 02:41:39;;;;;;;3.53;2.00;;;4.50;99.90;;;;;;10351005;28;20244;-70
2023/01/17 02:46:54;;;;;;;3.17;1.60;;;4.40;99.90;;;;;;10344535;28;20317;-70
2023/01/17 02:52:26;;;;;;;2.63;2.03;;;4.40;99.90;;;;;;10348684;28;20256;-70
2023/01/17 02:57:38;;;;;;;2.57;1.80;;;4.40;99.90;;;;;;10350641;28;20225;-69
2023/01/17 03:02:54;;;;;;;4.87;2.40;;;4.40;99.90;;;;;;10344447;28;20301;-69
2023/01/17 03:07:55;;;;;;;5.20;2.37;;;4.40;99.90;;;;;;10352500;28;20228;-69
2023/01/17 03:12:58;;;;;;;5.07;2.57;;;4.40;99.90;;;;;;10346631;28;20225;-70
2023/01/17 03:18:06;;;;;;;3.23;2.40;;;4.30;99.90;;;;;;10350620;28;20222;-71
2023/01/17 03:23:06;;;;;;;6.07;2.73;;;4.30;99.90;;;;;;10351966;28;20661;-70
2023/01/17 03:28:07;;;;;;;4.37;2.23;;;4.20;99.90;;;;;;10339531;28;20217;-69
2023/01/17 03:33:08;;;;;;;3.23;2.10;;;4.20;99.90;;;;;;10337672;28;20218;-69
2023/01/17 03:38:08;;;;;;;2.97;2.20;;;4.10;99.90;;;;;;10355744;28;20230;-69
2023/01/17 03:43:09;;;;;;;5.33;2.37;;;4.10;99.90;;;;;;10348058;28;20304;-69
2023/01/17 03:48:09;;;;;;;6.47;2.73;;;4.10;99.90;;;;;;10354887;28;20253;-69
2023/01/17 03:53:10;;;;;;;3.00;2.20;;;4.10;99.90;;;;;;10356054;28;20593;-69
2023/01/17 03:58:10;;;;;;;4.50;2.30;;;4.00;99.90;;;;;;10345213;28;20284;-69
2023/01/17 04:03:11;;;;;;;5.93;2.50;;;3.80;99.90;;;;;;10355670;28;20217;-69
2023/01/17 04:08:11;;;;;;;6.10;2.43;;;3.70;99.90;;;;;;10353722;28;20226;-70
2023/01/17 04:13:12;;;;;;;4.93;2.50;;;3.50;99.90;;;;;;10349307;28;20213;-69
2023/01/17 04:18:15;;;;;;;5.30;2.50;;;3.40;99.90;;;;;;10343468;28;20222;-71
2023/01/17 04:23:16;;;;;;;4.97;2.70;;;3.30;99.90;;;;;;10343600;28;20218;-70
2023/01/17 04:28:16;;;;;;;5.40;2.30;;;3.20;99.90;;;;;;10355371;28;20648;-70
2023/01/17 04:33:17;;;;;;;4.70;2.53;;;3.10;99.90;;;;;;10350438;28;20217;-68
2023/01/17 04:38:18;;;;;;;3.77;2.80;;;3.10;99.90;;;;;;10349470;28;20739;-68
2023/01/17 04:43:18;;;;;;;3.57;2.47;;;3.10;99.90;;;;;;10351827;28;20218;-68
2023/01/17 04:48:19;;;;;;;4.60;2.67;;;3.10;99.90;;;;;;10354094;28;20225;-68
2023/01/17 04:53:19;;;;;;;4.93;2.80;;;3.20;99.90;;;;;;10333955;28;20689;-72
2023/01/17 04:58:20;;;;;;;3.20;2.47;;;3.40;99.90;;;;;;10354763;28;20225;-71
2023/01/17 05:03:22;;;;;;;3.97;2.60;;;3.50;99.90;;;;;;10356574;28;20216;-70
2023/01/17 05:08:24;;;;;;;4.07;2.67;;;3.60;99.90;;;;;;10350558;28;20218;-70
2023/01/17 05:13:24;;;;;;;6.20;3.10;;;3.70;99.90;;;;;;10354624;28;20221;-70
2023/01/17 05:18:25;;;;;;;6.77;2.90;;;3.70;99.90;;;;;;10356270;28;20233;-71
2023/01/17 05:23:25;;;;;;;5.43;2.90;;;3.70;99.90;;;;;;10358177;28;20231;-71
2023/01/17 05:28:26;;;;;;;3.30;3.00;;;3.80;99.90;;;;;;10356856;28;20221;-70
2023/01/17 05:33:27;;;;;;;3.63;2.77;;;3.80;99.90;;;;;;10352400;28;20225;-72
2023/01/17 05:38:27;;;;;;;3.93;2.60;;;3.80;99.90;;;;;;10348340;28;20226;-68
2023/01/17 05:43:28;;;;;;;6.10;3.70;;;3.80;99.90;;;;;;10353347;28;20222;-71
2023/01/17 05:48:28;;;;;;;4.63;3.03;;;3.90;99.90;;;;;;10344860;28;20221;-70
2023/01/17 05:53:29;;;;;;;4.20;3.00;;;3.90;99.90;;;;;;10346676;28;20226;-69
2023/01/17 05:58:29;;;;;;;6.47;3.17;;;3.90;99.90;;;;;;10351821;28;20312;-70
2023/01/17 06:03:30;;;;;;;3.63;2.50;;;3.90;99.90;;;;;;10338449;28;20210;-68
2023/01/17 06:08:30;;;;;;;5.37;2.90;;;3.90;99.90;;;;;;10356134;28;20300;-71
2023/01/17 06:13:31;;;;;;;6.50;3.37;;;3.80;99.90;;;;;;10358112;28;20629;-71
2023/01/17 06:18:32;;;;;;;6.60;3.77;;;3.90;99.90;;;;;;10334167;28;20227;-72
2023/01/17 06:23:32;;;;;;;5.00;3.53;;;3.80;99.90;;;;;;10360740;28;20217;-70
2023/01/17 06:28:33;;;;;;;7.57;4.00;;;3.90;99.90;;;;;;10345742;28;20576;-72
2023/01/17 06:33:33;;;;;;;6.47;3.70;;;3.90;99.90;;;;;;10335408;28;20218;-71
2023/01/17 06:38:34;;;;;;;4.37;3.30;;;3.90;99.90;;;;;;10342472;28;20658;-71
2023/01/17 06:43:35;;;;;;;5.93;3.57;;;3.90;99.90;;;;;;10350624;28;20296;-72
2023/01/17 06:48:35;;;;;;;6.53;4.23;;;3.90;99.90;;;;;;10351422;28;20633;-71
2023/01/17 06:53:39;;;;;;;6.07;4.23;;;3.80;99.90;;;;;;10326418;28;20300;-65
2023/01/17 06:58:42;;;;;;;5.30;3.97;;;3.80;99.90;;;;;;10344028;28;20299;-65
2023/01/17 07:03:43;;;;;;;5.20;4.13;;;3.70;99.90;;;;;;10350187;28;20218;-65
2023/01/17 07:08:46;;;;;;;5.70;3.60;;;3.70;99.90;;;;;;10351014;28;20286;-65
2023/01/17 07:13:46;;;;;;;7.33;4.53;;;3.70;99.90;;;;;;10348394;28;20218;-65
2023/01/17 07:18:47;;;;;;;6.83;4.07;;;3.60;99.90;;;;;;10344612;28;20584;-73
2023/01/17 07:23:48;;;;;;;4.83;3.87;;;3.50;99.90;;;;;;10349238;28;20300;-72
2023/01/17 07:28:48;;;;;;;5.47;3.90;;;3.30;99.90;;;;;;10349318;28;20305;-72
2023/01/17 07:33:49;;;;;;;7.27;4.73;;;3.30;99.90;;;;;;10351561;28;20213;-72
2023/01/17 07:38:50;;;;;;;7.03;4.60;;;3.20;99.90;;;;;;10343089;28;20708;-72
2023/01/17 07:43:51;;;;;;;7.47;3.93;;;3.10;99.90;;;;;;10347576;28;20225;-73
2023/01/17 07:48:51;;;;;;;9.37;4.73;;;3.10;99.90;;;;;;10350810;28;20672;-73
2023/01/17 07:53:52;;;;;;;8.40;4.43;;;3.20;99.90;;;;;;10347850;28;20225;-73
2023/01/17 07:58:52;;;;;;;6.23;4.07;;;3.40;99.90;;;;;;10345367;28;20233;-72
2023/01/17 08:03:53;;;;;;;4.97;4.13;;;3.40;99.90;;;;;;10356846;28;20225;-73
2023/01/17 08:08:55;;;;;;;8.63;4.70;;;3.60;99.90;;;;;;10344778;28;20229;-73
2023/01/17 08:13:58;;;;;;;5.80;4.47;;;3.60;99.90;;;;;;10346943;28;20951;-72
2023/01/17 08:18:58;;;;;;;9.90;5.93;;;3.70;99.90;;;;;;10344598;28;20241;-73
2023/01/17 08:23:59;;;;;;;7.97;4.90;;;3.80;99.90;;;;;;10338960;28;20220;-72
2023/01/17 08:29:00;;;;;;;8.50;4.90;;;3.80;99.90;;;;;;10360620;28;20239;-73
2023/01/17 08:34:00;;;;;;;8.20;4.67;;;3.90;99.90;;;;;;10351677;28;20254;-73
2023/01/17 08:39:01;;;;;;;6.47;4.17;;;4.00;99.90;;;;;;10346212;28;20591;-73
2023/01/17 08:44:05;;;;;;;7.17;4.40;;;4.20;99.90;;;;;;10352344;28;20800;-73
2023/01/17 08:49:08;;;;;;;9.20;5.03;;;7.10;99.90;;;;;;10355115;28;20220;-72
2023/01/17 08:54:11;;;;;;;6.60;3.73;;;11.90;99.90;;;;;;10350878;28;20236;-73
2023/01/17 08:59:12;;;;;;;4.83;3.30;;;15.80;99.20;;;;;;10351616;28;20248;-73
2023/01/17 09:04:13;;;;;;;7.97;4.30;;;18.40;77.50;;;;;;10356452;28;20217;-73
2023/01/17 09:09:17;;;;;;;4.47;3.43;;;19.50;62.40;;;;;;10353590;28;20214;-74
2023/01/17 09:14:18;;;;;;;7.07;3.60;;;20.50;55.50;;;;;;10349547;28;20768;-73
2023/01/17 09:19:18;;;;;;;2.93;2.43;;;21.30;52.10;;;;;;10352894;28;20223;-73
2023/01/17 09:24:22;;;;;;;4.70;2.47;;;22.10;48.10;;;;;;10349221;28;20210;-73
2023/01/17 09:29:22;;;;;;;4.03;2.60;;;22.60;46.20;;;;;;10330077;28;20236;-73
2023/01/17 09:34:26;;;;;;;4.10;2.90;;;23.20;44.70;;;;;;10352135;28;20272;-74
2023/01/17 09:39:27;;;;;;;2.70;2.17;;;23.80;41.40;;;;;;10346152;28;20240;-72
2023/01/17 09:44:47;;;;;;;2.70;2.10;;;24.50;39.10;;;;;;10344756;28;20220;-73
2023/01/17 09:49:48;;;;;;;5.77;2.20;;;24.60;38.40;;;;;;10353675;28;20248;-73
2023/01/17 09:54:49;;;;;;;5.70;2.50;;;25.00;37.60;;;;;;10337273;28;20667;-72
2023/01/17 10:00:16;;;;;;;5.00;2.50;;;25.80;36.10;;;;;;10341382;28;20251;-73
2023/01/17 10:05:57;;;;;;;3.80;2.13;;;26.30;34.70;;;;;;10360634;28;20249;-72
2023/01/17 10:11:33;;;;;;;5.13;3.00;;;26.40;33.40;;;;;;10341519;28;20226;-73
2023/01/17 10:16:46;;;;;;;6.57;3.00;;;26.60;33.90;;;;;;10344783;28;20640;-73
2023/01/17 10:22:15;;;;;;;3.40;2.60;;;26.40;33.80;;;;;;10345492;28;20301;-73
2023/01/17 10:27:32;;;;;;;4.03;2.90;;;25.30;34.20;;;;;;10351481;28;20241;-73
2023/01/17 10:32:37;;;;;;;3.43;2.40;;;22.20;39.60;;;;;;10351528;28;20224;-72
2023/01/17 10:37:44;;;;;;;3.77;2.70;;;23.70;38.90;;;;;;10342731;28;20217;-72
2023/01/17 10:42:56;;;;;;;5.40;2.23;;;23.60;37.30;;;;;;10350559;28;20221;-73
2023/01/17 10:48:14;;;;;;;3.63;2.13;;;23.90;35.40;;;;;;10342825;28;20311;-73
2023/01/17 10:53:33;;;;;;;7.13;2.23;;;24.30;34.70;;;;;;10348546;28;20572;-73
2023/01/17 10:58:33;;;;;;;4.37;2.47;;;25.40;33.50;;;;;;10351637;28;20595;-74
2023/01/17 11:03:34;;;;;;;4.37;2.60;;;25.70;32.80;;;;;;10333947;28;20236;-74
2023/01/17 11:08:50;;;;;;;3.17;2.50;;;25.70;32.90;;;;;;10355145;28;20240;-73
2023/01/17 11:13:53;;;;;;;3.27;2.13;;;25.30;33.80;;;;;;10350992;28;20292;-73
2023/01/17 11:19:15;;;;;;;2.63;1.70;;;24.70;33.70;;;;;;10347998;28;20217;-72
2023/01/17 11:24:24;;;;;;;4.70;2.40;;;24.60;33.20;;;;;;10348119;28;20243;-73
2023/01/17 11:29:37;;;;;;;3.40;2.20;;;24.40;33.40;;;;;;10349582;28;20228;-73
2023/01/17 11:34:38;;;;;;;2.83;2.20;;;22.40;35.60;;;;;;10343045;28;20235;-73
2023/01/17 11:39:38;;;;;;;3.13;2.17;;;18.30;40.80;;;;;;10349995;28;20252;-72
2023/01/17 11:44:39;;;;;;;6.27;2.20;;;15.20;47.00;;;;;;10350322;28;20225;-71
2023/01/17 11:49:42;;;;;;;2.40;1.57;;;13.40;51.50;;;;;;10342107;28;20232;-72
2023/01/17 11:54:48;;;;;;;2.87;2.10;;;11.90;52.70;;;;;;10349427;28;20212;-71
2023/01/17 11:59:49;;;;;;;2.00;1.80;;;11.10;56.40;;;;;;10353834;28;20248;-73
2023/01/17 12:05:14;;;;;;;4.03;2.03;;;10.50;57.90;;;;;;10341932;28;20696;-73
2023/01/17 12:10:27;;;;;;;2.90;2.03;;;10.60;58.60;;;;;;10351108;28;20268;-72
2023/01/17 12:16:00;;;;;;;2.33;1.73;;;10.60;59.10;;;;;;10356538;28;20212;-73
2023/01/17 12:21:27;;;;;;;3.60;2.10;;;10.50;59.00;;;;;;10352525;28;20252;-72
2023/01/17 12:27:08;;;;;;;5.30;3.07;;;10.40;59.70;;;;;;10351833;28;20220;-73
2023/01/17 12:32:48;;;;;;;3.33;2.50;;;10.30;61.00;;;;;;10340921;28;20229;-73
2023/01/17 12:37:57;;;;;;;3.23;2.00;;;10.00;61.90;;;;;;10349919;28;20648;-73
2023/01/17 12:43:41;;;;;;;2.63;1.63;;;9.80;61.40;;;;;;10359675;28;20221;-72
2023/01/17 12:48:47;;;;;;;2.03;1.40;;;9.00;60.10;;;;;;10222251;29;20293;-73
2023/01/17 12:53:59;;;;;;;3.40;1.83;;;8.70;62.80;;;;;;10314095;28;20237;-72
2023/01/17 12:59:18;;;;;;;1.77;1.20;;;8.60;62.80;;;;;;10352846;28;20225;-72
2023/01/17 13:04:30;;;;;;;3.13;1.97;;;8.70;62.60;;;;;;10353237;28;20225;-72
2023/01/17 13:09:40;;;;;;;3.63;2.20;;;8.80;62.90;;;;;;10345126;28;20245;-72
2023/01/17 13:14:41;;;;;;;4.03;2.10;;;8.60;62.90;;;;;;10353749;28;20215;-73
2023/01/17 13:19:56;;;;;;;3.97;2.30;;;8.30;63.50;;;;;;10330108;28;20308;-73
2023/01/17 13:25:13;;;;;;;3.40;2.13;;;8.30;64.30;;;;;;10355635;28;20239;-73
2023/01/17 13:30:42;;;;;;;2.30;1.50;;;8.40;64.40;;;;;;10353394;28;20293;-73
2023/01/17 13:35:59;;;;;;;2.60;1.73;;;8.20;64.30;;;;;;10346465;28;20247;-71
2023/01/17 13:41:27;;;;;;;2.33;1.60;;;7.80;65.60;;;;;;10349827;28;20233;-71
2023/01/17 13:46:59;;;;;;;4.43;1.40;;;7.60;65.50;;;;;;10352549;28;20375;-72
2023/01/17 13:52:18;;;;;;;2.07;1.33;;;7.30;65.70;;;;;;10358090;28;20241;-75
2023/01/17 13:57:24;;;;;;;4.03;1.80;;;6.90;66.50;;;;;;10351796;28;20221;-73
2023/01/17 14:02:31;;;;;;;1.93;1.23;;;6.70;68.00;;;;;;10354237;28;20228;-75
2023/01/17 14:07:34;;;;;;;3.80;1.87;;;6.70;66.90;;;;;;10354579;28;20316;-75
2023/01/17 14:12:38;;;;;;;2.80;1.70;;;6.60;67.40;;;;;;10338020;28;20217;-75
2023/01/17 14:17:51;;;;;;;3.23;1.60;;;6.70;68.00;;;;;;10346050;28;20649;-74
2023/01/17 14:22:59;;;;;;;3.23;1.60;;;6.70;68.00;;;;;;10352563;28;20218;-74
2023/01/17 14:28:03;;;;;;;1.60;1.30;;;6.60;68.50;;;;;;10350700;28;20235;-74
2023/01/17 14:33:38;;;;;;;4.73;2.43;;;6.50;67.90;;;;;;10357482;28;20213;-74
2023/01/17 14:38:43;;;;;;;2.27;1.37;;;6.40;68.60;;;;;;10340397;28;20230;-74
2023/01/17 14:43:45;;;;;;;2.57;1.83;;;6.10;68.10;;;;;;10334325;28;20228;-74
2023/01/17 14:48:46;;;;;;;2.67;1.50;;;5.90;69.50;;;;;;10350398;28;20334;-74
2023/01/17 14:53:58;;;;;;;2.30;1.63;;;5.90;71.00;;;;;;10343796;28;20824;-75
2023/01/17 14:59:15;;;;;;;4.90;2.17;;;5.90;71.50;;;;;;10351802;28;20241;-75
2023/01/17 15:04:29;;;;;;;4.60;1.70;;;5.90;72.60;;;;;;10342347;28;20240;-74
2023/01/17 15:09:34;;;;;;;2.83;1.50;;;5.80;73.50;;;;;;10344086;28;20255;-74
2023/01/17 15:14:40;;;;;;;2.83;1.70;;;5.80;72.10;;;;;;10352123;28;20226;-75
2023/01/17 15:19:43;;;;;;;5.03;1.73;;;5.70;72.50;;;;;;10325615;28;20225;-74
2023/01/17 15:24:48;;;;;;;3.90;1.57;;;5.60;72.20;;;;;;10357148;28;20272;-74
2023/01/17 15:29:49;;;;;;;3.30;1.83;;;5.60;73.10;;;;;;10349703;28;20332;-74
2023/01/17 15:34:50;;;;;;;5.37;2.47;;;5.60;74.50;;;;;;10354597;28;20307;-74
2023/01/17 15:40:00;;;;;;;2.10;1.63;;;5.60;76.10;;;;;;10351385;28;20253;-74
2023/01/17 15:45:04;;;;;;;2.17;1.77;;;5.50;76.00;;;;;;10354511;28;20225;-76
2023/01/17 15:50:25;;;;;;;3.23;2.20;;;5.40;76.90;;;;;;10355578;28;20564;-73
2023/01/17 15:55:34;;;;;;;3.37;1.80;;;5.30;78.10;;;;;;10359071;28;20221;-74
2023/01/17 16:00:39;;;;;;;4.13;2.00;;;5.30;79.50;;;;;;10350399;28;20218;-75
2023/01/17 16:05:42;;;;;;;3.40;2.10;;;5.20;80.70;;;;;;10350741;28;20218;-75
2023/01/17 16:10:43;;;;;;;4.77;2.63;;;5.10;81.00;;;;;;10356385;28;20692;-75
2023/01/17 16:15:44;;;;;;;3.97;1.97;;;5.10;82.40;;;;;;10356740;28;20225;-74
2023/01/17 16:21:21;;;;;;;6.67;1.97;;;5.10;83.60;;;;;;10346563;28;20223;-75
2023/01/17 16:26:23;;;;;;;4.80;1.70;;;5.10;84.50;;;;;;10349798;28;20221;-74
2023/01/17 16:31:23;;;;;;;5.33;1.73;;;5.00;85.00;;;;;;10354982;28;20237;-75
2023/01/17 16:36:24;;;;;;;3.00;2.10;;;5.00;86.00;;;;;;10362656;28;20226;-74
2023/01/17 16:41:24;;;;;;;4.37;2.20;;;4.90;86.30;;;;;;10350064;28;20618;-75
2023/01/17 16:46:25;;;;;;;2.67;1.97;;;4.90;87.80;;;;;;10354520;28;20226;-74
2023/01/17 16:51:29;;;;;;;4.33;2.60;;;4.90;88.40;;;;;;10354256;28;20697;-74
2023/01/17 16:56:30;;;;;;;5.23;2.57;;;4.80;89.90;;;;;;10356422;28;20228;-74
2023/01/17 17:01:30;;;;;;;5.47;2.53;;;4.70;90.10;;;;;;10330634;28;20664;-75
2023/01/17 17:06:31;;;;;;;7.17;3.70;;;4.70;90.80;;;;;;10347644;28;20315;-74
2023/01/17 17:11:31;;;;;;;8.37;3.90;;;4.60;91.30;;;;;;10355485;28;20233;-74
2023/01/17 17:16:32;;;;;;;8.73;4.50;;;4.60;92.30;;;;;;10354856;28;20232;-74
2023/01/17 17:21:35;;;;;;;9.53;4.70;;;4.50;93.20;;;;;;10360071;28;20559;-74
2023/01/17 17:26:36;;;;;;;7.40;3.87;;;4.40;94.10;;;;;;10355481;28;20278;-74
2023/01/17 17:31:41;;;;;;;4.57;3.23;;;4.20;94.90;;;;;;10362237;28;20707;-74
2023/01/17 17:36:41;;;;;;;9.07;3.93;;;4.10;95.60;;;;;;10347403;28;20723;-74
2023/01/17 17:41:44;;;;;;;8.90;4.17;;;4.00;96.40;;;;;;10354429;28;20236;-74
2023/01/17 17:46:48;;;;;;;7.63;4.10;;;3.90;97.70;;;;;;10345974;28;20648;-74
2023/01/17 17:51:48;;;;;;;10.27;4.10;;;3.80;98.80;;;;;;10346126;28;20621;-74
2023/01/17 17:56:49;;;;;;;6.73;3.60;;;3.80;99.90;;;;;;10359769;28;20230;-74
2023/01/17 18:01:50;;;;;;;6.03;3.90;;;3.80;99.90;;;;;;10338697;28;20248;-74
2023/01/17 18:06:54;;;;;;;7.73;3.90;;;3.70;99.90;;;;;;10343805;28;20308;-75
2023/01/17 18:11:56;;;;;;;8.10;3.97;;;3.70;99.90;;;;;;10348508;28;20284;-74
2023/01/17 18:16:56;;;;;;;7.93;3.87;;;3.70;99.90;;;;;;10352531;28;20249;-74
2023/01/17 18:21:57;;;;;;;7.50;3.87;;;3.70;99.90;;;;;;10351782;28;20283;-75
2023/01/17 18:26:57;;;;;;;7.27;4.53;;;3.70;99.90;;;;;;10348908;28;20226;-74
2023/01/17 18:31:58;;;;;;;8.47;3.67;;;3.70;99.90;;;;;;10340873;28;20243;-75
2023/01/17 18:36:58;;;;;;;7.10;4.57;;;3.70;99.90;;;;;;10335808;28;20222;-74
2023/01/17 18:42:00;;;;;;;5.67;3.67;;;3.70;99.90;;;;;;10351825;28;20230;-74
2023/01/17 18:47:03;;;;;;;6.70;3.37;;;3.70;99.90;;;;;;10348139;28;20248;-75
2023/01/17 18:52:06;;;;;;;7.23;3.63;;;3.70;99.90;;;;;;10327045;28;20237;-75
2023/01/17 18:57:07;;;;;;;5.57;3.00;;;3.60;99.90;;;;;;10345430;28;20258;-74
2023/01/17 19:02:08;;;;;;;6.20;3.40;;;3.60;99.90;;;;;;10348972;28;20598;-74
2023/01/17 19:07:09;;;;;;;5.73;3.40;;;3.60;99.90;;;;;;10347457;28;20243;-75
2023/01/17 19:12:09;;;;;;;7.27;3.73;;;3.60;99.90;;;;;;10347793;28;20227;-74
2023/01/17 19:17:17;;;;;;;6.93;3.80;;;3.60;99.90;;;;;;10343870;28;20218;-74
2023/01/17 19:22:17;;;;;;;5.00;3.57;;;3.50;99.90;;;;;;10345331;28;20715;-74
2023/01/17 19:27:18;;;;;;;6.83;3.87;;;3.50;99.90;;;;;;10350568;28;20312;-73
2023/01/17 19:32:18;;;;;;;7.97;3.87;;;3.50;99.90;;;;;;10354653;28;20222;-74
2023/01/17 19:37:19;;;;;;;6.10;3.90;;;3.40;99.90;;;;;;10350198;28;20229;-74
2023/01/17 19:42:20;;;;;;;6.13;4.23;;;3.40;99.90;;;;;;10333883;28;20647;-74
2023/01/17 19:47:23;;;;;;;8.70;4.17;;;3.50;99.90;;;;;;10350867;28;20237;-75
2023/01/17 19:52:25;;;;;;;6.80;4.03;;;3.60;99.90;;;;;;10339945;28;20708;-73
2023/01/17 19:57:26;;;;;;;6.27;4.67;;;3.60;99.90;;;;;;10342852;28;20624;-74
2023/01/17 20:02:27;;;;;;;5.43;3.90;;;3.70;99.90;;;;;;10335381;28;20288;-75
2023/01/17 20:07:28;;;;;;;7.30;4.13;;;3.70;99.90;;;;;;10344343;28;20266;-74
2023/01/17 20:12:29;;;;;;;9.97;5.27;;;3.60;99.90;;;;;;10350353;28;20670;-73
2023/01/17 20:17:30;;;;;;;10.23;5.30;;;3.60;99.90;;;;;;10342998;28;20672;-74
2023/01/17 20:22:30;;;;;;;10.13;5.70;;;3.60;99.90;;;;;;10342587;28;20233;-74
2023/01/17 20:27:34;;;;;;;9.60;5.17;;;3.60;99.90;;;;;;10348728;28;20697;-75
2023/01/17 20:32:34;;;;;;;8.67;4.97;;;3.60;99.90;;;;;;10363364;28;20715;-75
2023/01/17 20:37:35;;;;;;;15.13;7.43;;;3.60;99.90;;;;;;10355815;28;20240;-74
2023/01/17 20:42:36;;;;;;;13.67;6.93;;;3.50;99.90;;;;;;10362015;28;21038;-76
2023/01/17 20:47:36;;;;;;;9.17;5.90;;;3.40;99.90;;;;;;10357191;28;20313;-75
2023/01/17 20:52:39;;;;;;;8.03;5.07;;;3.30;99.90;;;;;;10357421;28;20231;-73
2023/01/17 20:57:39;;;;;;;8.53;5.10;;;3.10;99.90;;;;;;10349954;28;20957;-74
2023/01/17 21:02:40;;;;;;;10.83;5.60;;;3.00;99.90;;;;;;10357255;28;20324;-74
2023/01/17 21:07:41;;;;;;;8.73;4.33;;;2.90;99.90;;;;;;10347836;28;20206;-75
2023/01/17 21:12:41;;;;;;;5.40;3.33;;;2.90;99.90;;;;;;10363461;28;20224;-75
2023/01/17 21:17:43;;;;;;;5.97;3.63;;;2.80;99.90;;;;;;10347280;28;20229;-75
2023/01/17 21:22:43;;;;;;;5.97;3.77;;;2.80;99.90;;;;;;10348800;28;20234;-74
2023/01/17 21:27:44;;;;;;;6.97;4.03;;;2.70;99.90;;;;;;10347483;28;20317;-74
2023/01/17 21:32:44;;;;;;;5.30;3.70;;;2.70;99.90;;;;;;10344659;28;20271;-74
2023/01/17 21:37:49;;;;;;;8.03;4.20;;;2.70;99.90;;;;;;10362682;28;20834;-74
2023/01/17 21:42:50;;;;;;;7.70;4.70;;;2.70;99.90;;;;;;10344250;28;20224;-74
2023/01/17 21:47:51;;;;;;;9.23;4.90;;;2.70;99.90;;;;;;10359143;28;20209;-74
2023/01/17 21:52:52;;;;;;;11.00;5.20;;;2.70;99.90;;;;;;10339737;28;20232;-74
2023/01/17 22:03:12;;;;;;;9.03;5.10;;;2.70;99.90;;;;;;10349488;28;20309;-74
2023/01/17 22:08:14;;;;;;;13.53;4.97;;;2.60;99.90;;;;;;10328927;28;20320;-74
2023/01/17 22:13:16;;;;;;;9.70;5.33;;;2.60;99.90;;;;;;10349299;28;20590;-75
2023/01/17 22:18:17;;;;;;;11.77;5.53;;;2.60;99.90;;;;;;10333659;28;20235;-75
2023/01/17 22:23:19;;;;;;;18.43;6.80;;;2.60;99.90;;;;;;10348202;28;20213;-73
2023/01/17 22:28:23;;;;;;;13.07;5.83;;;2.60;99.90;;;;;;10338978;28;20218;-75
2023/01/17 22:33:23;;;;;;;11.87;5.73;;;2.70;99.90;;;;;;10345387;28;20218;-74
2023/01/17 22:38:24;;;;;;;8.53;4.37;;;2.60;99.90;;;;;;10350926;28;20229;-75
2023/01/17 22:43:26;;;;;;;6.10;4.10;;;2.50;99.90;;;;;;10344885;28;20234;-74
2023/01/17 22:48:26;;;;;;;7.13;4.83;;;2.40;99.90;;;;;;10347935;28;20308;-73
2023/01/17 22:53:28;;;;;;;6.67;4.53;;;2.40;99.90;;;;;;10341510;28;20243;-73
2023/01/17 22:58:30;;;;;;;7.10;4.33;;;2.30;99.90;;;;;;10352414;28;20311;-74
2023/01/17 23:03:32;;;;;;;6.40;4.47;;;2.30;99.90;;;;;;10345618;28;20228;-74
2023/01/17 23:08:32;;;;;;;5.70;3.83;;;2.30;99.90;;;;;;10342500;28;20228;-74
2023/01/17 23:13:33;;;;;;;5.67;4.10;;;2.40;99.90;;;;;;10343408;28;20236;-74
2023/01/17 23:23:52;;;;;;;8.70;4.37;;;2.40;99.90;;;;;;10346206;28;20594;-74
2023/01/17 23:28:53;;;;;;;5.50;4.10;;;2.40;99.90;;;;;;10351075;28;20218;-73
2023/01/17 23:33:53;;;;;;;7.37;3.90;;;2.40;99.90;;;;;;10350078;28;20221;-74
2023/01/17 23:38:54;;;;;;;6.10;4.17;;;2.40;99.90;;;;;;10357554;28;20221;-74
2023/01/17 23:43:56;;;;;;;10.63;4.77;;;2.40;99.90;;;;;;10351578;28;20214;-74
2023/01/17 23:48:57;;;;;;;8.20;4.00;;;2.40;99.90;;;;;;10351458;28;20355;-73
2023/01/17 23:54:04;;;;;;;8.00;4.30;;;2.40;99.90;;;;;;10345040;28;20301;-74
2023/01/17 23:59:04;;;;;;;6.70;4.17;;;2.40;99.90;;;;;;10360037;28;20274;-74
